Aviation Digital Data Service (ADDS)

Output produced by METARs form (0804 UTC 18 February 2019)
found at http://www.aviationweather.gov/metar/data/
 
Forecast for: EDDC (DRESDEN/KLOTZSCH, DE)
Text: TAF EDDC 180500Z 1806/1906 17008KT CAVOK
Forecast period: 0600 UTC 18 February 2019 to 0600 UTC 19 February 2019
Forecast type: FROM: standard forecast or significant change
Winds: from the S (170 degrees) at 9 MPH (8 knots; 4.1 m/s)
Visibility: 6 or more miles 10+ km)
Ceiling: unknown
Clouds: missing
Weather: NSW  (no significant weather)